sensor_id;sensor_type;location;lat;lon;timestamp;P1;durP1;ratioP1;P2;durP2;ratioP2
71253;SDS011;59019;47.638;18.966;2023-08-20T00:02:02;13.30;;;10.90;;
71253;SDS011;59019;47.638;18.966;2023-08-20T00:04:31;12.17;;;10.70;;
71253;SDS011;59019;47.638;18.966;2023-08-20T00:07:00;15.85;;;11.35;;
71253;SDS011;59019;47.638;18.966;2023-08-20T00:09:27;14.73;;;11.37;;
71253;SDS011;59019;47.638;18.966;2023-08-20T00:11:53;14.05;;;11.55;;
71253;SDS011;59019;47.638;18.966;2023-08-20T00:14:18;15.10;;;11.90;;
71253;SDS011;59019;47.638;18.966;2023-08-20T00:16:44;13.80;;;11.70;;
71253;SDS011;59019;47.638;18.966;2023-08-20T00:19:11;15.85;;;11.82;;
71253;SDS011;59019;47.638;18.966;2023-08-20T00:21:46;14.30;;;11.63;;
71253;SDS011;59019;47.638;18.966;2023-08-20T00:24:11;13.52;;;11.23;;
71253;SDS011;59019;47.638;18.966;2023-08-20T00:26:37;14.57;;;10.93;;
71253;SDS011;59019;47.638;18.966;2023-08-20T00:29:03;15.50;;;11.32;;
71253;SDS011;59019;47.638;18.966;2023-08-20T00:31:29;13.90;;;11.20;;
71253;SDS011;59019;47.638;18.966;2023-08-20T00:33:54;14.23;;;10.43;;
71253;SDS011;59019;47.638;18.966;2023-08-20T00:36:20;13.25;;;10.60;;
71253;SDS011;59019;47.638;18.966;2023-08-20T00:38:45;12.45;;;10.40;;
71253;SDS011;59019;47.638;18.966;2023-08-20T00:41:11;12.90;;;10.33;;
71253;SDS011;59019;47.638;18.966;2023-08-20T00:43:36;12.07;;;10.00;;
71253;SDS011;59019;47.638;18.966;2023-08-20T00:46:02;13.90;;;10.77;;
71253;SDS011;59019;47.638;18.966;2023-08-20T00:48:28;14.30;;;10.57;;
71253;SDS011;59019;47.638;18.966;2023-08-20T00:50:54;13.85;;;10.77;;
71253;SDS011;59019;47.638;18.966;2023-08-20T00:53:20;12.03;;;10.40;;
71253;SDS011;59019;47.638;18.966;2023-08-20T00:55:45;13.83;;;10.83;;
71253;SDS011;59019;47.638;18.966;2023-08-20T00:58:11;12.97;;;10.50;;
71253;SDS011;59019;47.638;18.966;2023-08-20T01:00:37;12.98;;;11.10;;
71253;SDS011;59019;47.638;18.966;2023-08-20T01:03:02;13.90;;;10.70;;
71253;SDS011;59019;47.638;18.966;2023-08-20T01:05:29;14.80;;;11.07;;
71253;SDS011;59019;47.638;18.966;2023-08-20T01:08:02;13.52;;;10.60;;
71253;SDS011;59019;47.638;18.966;2023-08-20T01:13:17;16.13;;;11.90;;
71253;SDS011;59019;47.638;18.966;2023-08-20T01:15:43;14.32;;;11.60;;
71253;SDS011;59019;47.638;18.966;2023-08-20T01:18:08;14.17;;;11.43;;
71253;SDS011;59019;47.638;18.966;2023-08-20T01:20:35;15.90;;;12.23;;
71253;SDS011;59019;47.638;18.966;2023-08-20T01:23:19;15.45;;;12.30;;
71253;SDS011;59019;47.638;18.966;2023-08-20T01:26:31;13.88;;;11.93;;
71253;SDS011;59019;47.638;18.966;2023-08-20T01:29:17;13.63;;;11.73;;
71253;SDS011;59019;47.638;18.966;2023-08-20T01:31:44;14.43;;;11.20;;
71253;SDS011;59019;47.638;18.966;2023-08-20T01:34:10;13.75;;;11.40;;
71253;SDS011;59019;47.638;18.966;2023-08-20T01:36:35;15.33;;;10.90;;
71253;SDS011;59019;47.638;18.966;2023-08-20T01:39:02;12.57;;;10.50;;
71253;SDS011;59019;47.638;18.966;2023-08-20T01:41:30;14.48;;;12.07;;
71253;SDS011;59019;47.638;18.966;2023-08-20T01:43:55;13.70;;;11.87;;
71253;SDS011;59019;47.638;18.966;2023-08-20T01:46:21;13.68;;;11.48;;
71253;SDS011;59019;47.638;18.966;2023-08-20T01:48:46;14.45;;;11.52;;
71253;SDS011;59019;47.638;18.966;2023-08-20T01:51:12;15.13;;;11.50;;
71253;SDS011;59019;47.638;18.966;2023-08-20T01:53:38;12.97;;;10.70;;
71253;SDS011;59019;47.638;18.966;2023-08-20T01:56:03;12.18;;;10.75;;
71253;SDS011;59019;47.638;18.966;2023-08-20T01:58:29;14.48;;;10.90;;
71253;SDS011;59019;47.638;18.966;2023-08-20T02:00:55;13.52;;;10.98;;
71253;SDS011;59019;47.638;18.966;2023-08-20T02:03:21;14.43;;;11.33;;
71253;SDS011;59019;47.638;18.966;2023-08-20T02:05:47;15.50;;;10.80;;
71253;SDS011;59019;47.638;18.966;2023-08-20T02:08:12;14.00;;;10.85;;
71253;SDS011;59019;47.638;18.966;2023-08-20T02:10:38;13.77;;;10.83;;
71253;SDS011;59019;47.638;18.966;2023-08-20T02:13:03;14.50;;;11.30;;
71253;SDS011;59019;47.638;18.966;2023-08-20T02:15:30;13.13;;;11.68;;
71253;SDS011;59019;47.638;18.966;2023-08-20T02:17:56;16.30;;;12.00;;
71253;SDS011;59019;47.638;18.966;2023-08-20T02:20:21;14.33;;;12.07;;
71253;SDS011;59019;47.638;18.966;2023-08-20T02:22:47;16.10;;;12.40;;
71253;SDS011;59019;47.638;18.966;2023-08-20T02:25:13;15.23;;;11.80;;
71253;SDS011;59019;47.638;18.966;2023-08-20T02:27:39;14.82;;;11.68;;
71253;SDS011;59019;47.638;18.966;2023-08-20T02:30:04;13.33;;;11.07;;
71253;SDS011;59019;47.638;18.966;2023-08-20T02:32:30;14.35;;;11.30;;
71253;SDS011;59019;47.638;18.966;2023-08-20T02:34:58;14.07;;;10.75;;
71253;SDS011;59019;47.638;18.966;2023-08-20T02:37:23;12.27;;;10.80;;
71253;SDS011;59019;47.638;18.966;2023-08-20T02:39:49;14.90;;;10.97;;
71253;SDS011;59019;47.638;18.966;2023-08-20T02:42:14;13.05;;;10.82;;
71253;SDS011;59019;47.638;18.966;2023-08-20T02:44:40;12.93;;;10.50;;
71253;SDS011;59019;47.638;18.966;2023-08-20T02:47:05;14.23;;;10.67;;
71253;SDS011;59019;47.638;18.966;2023-08-20T02:49:31;13.93;;;11.03;;
71253;SDS011;59019;47.638;18.966;2023-08-20T02:51:56;17.20;;;11.83;;
71253;SDS011;59019;47.638;18.966;2023-08-20T02:54:22;16.73;;;12.20;;
71253;SDS011;59019;47.638;18.966;2023-08-20T02:56:48;14.07;;;11.63;;
71253;SDS011;59019;47.638;18.966;2023-08-20T02:59:13;13.80;;;11.40;;
71253;SDS011;59019;47.638;18.966;2023-08-20T03:01:39;14.80;;;11.30;;
71253;SDS011;59019;47.638;18.966;2023-08-20T03:04:04;14.23;;;11.40;;
71253;SDS011;59019;47.638;18.966;2023-08-20T03:06:30;14.10;;;11.05;;
71253;SDS011;59019;47.638;18.966;2023-08-20T03:08:55;13.93;;;11.53;;
71253;SDS011;59019;47.638;18.966;2023-08-20T03:11:21;14.73;;;11.17;;
71253;SDS011;59019;47.638;18.966;2023-08-20T03:13:46;14.03;;;10.77;;
71253;SDS011;59019;47.638;18.966;2023-08-20T03:16:12;17.00;;;11.40;;
71253;SDS011;59019;47.638;18.966;2023-08-20T03:18:38;15.27;;;11.70;;
71253;SDS011;59019;47.638;18.966;2023-08-20T03:21:03;12.97;;;11.10;;
71253;SDS011;59019;47.638;18.966;2023-08-20T03:23:29;13.47;;;11.13;;
71253;SDS011;59019;47.638;18.966;2023-08-20T03:25:57;14.50;;;11.13;;
71253;SDS011;59019;47.638;18.966;2023-08-20T03:28:23;13.47;;;11.07;;
71253;SDS011;59019;47.638;18.966;2023-08-20T03:30:49;12.70;;;10.40;;
71253;SDS011;59019;47.638;18.966;2023-08-20T03:33:14;14.32;;;11.55;;
71253;SDS011;59019;47.638;18.966;2023-08-20T03:35:42;13.00;;;11.15;;
71253;SDS011;59019;47.638;18.966;2023-08-20T03:38:08;13.90;;;10.90;;
71253;SDS011;59019;47.638;18.966;2023-08-20T03:40:33;12.50;;;10.80;;
71253;SDS011;59019;47.638;18.966;2023-08-20T03:42:59;12.77;;;10.93;;
71253;SDS011;59019;47.638;18.966;2023-08-20T03:45:25;13.43;;;10.50;;
71253;SDS011;59019;47.638;18.966;2023-08-20T03:47:51;15.30;;;10.60;;
71253;SDS011;59019;47.638;18.966;2023-08-20T03:50:19;12.93;;;10.90;;
71253;SDS011;59019;47.638;18.966;2023-08-20T03:52:45;12.35;;;10.85;;
71253;SDS011;59019;47.638;18.966;2023-08-20T03:55:10;12.43;;;10.88;;
71253;SDS011;59019;47.638;18.966;2023-08-20T03:57:36;14.23;;;10.63;;
71253;SDS011;59019;47.638;18.966;2023-08-20T04:00:01;13.57;;;10.57;;
71253;SDS011;59019;47.638;18.966;2023-08-20T04:02:28;14.35;;;10.57;;
71253;SDS011;59019;47.638;18.966;2023-08-20T04:04:54;15.77;;;11.10;;
71253;SDS011;59019;47.638;18.966;2023-08-20T04:07:22;13.45;;;10.70;;
71253;SDS011;59019;47.638;18.966;2023-08-20T04:09:47;13.00;;;10.70;;
71253;SDS011;59019;47.638;18.966;2023-08-20T04:12:13;13.73;;;10.80;;
71253;SDS011;59019;47.638;18.966;2023-08-20T04:14:38;12.83;;;10.37;;
71253;SDS011;59019;47.638;18.966;2023-08-20T04:17:04;12.47;;;10.47;;
71253;SDS011;59019;47.638;18.966;2023-08-20T04:19:29;13.18;;;10.27;;
71253;SDS011;59019;47.638;18.966;2023-08-20T04:21:55;12.13;;;10.13;;
71253;SDS011;59019;47.638;18.966;2023-08-20T04:24:20;13.23;;;10.20;;
71253;SDS011;59019;47.638;18.966;2023-08-20T04:26:46;12.83;;;9.80;;
71253;SDS011;59019;47.638;18.966;2023-08-20T04:29:12;11.60;;;9.27;;
71253;SDS011;59019;47.638;18.966;2023-08-20T04:31:37;12.45;;;9.88;;
71253;SDS011;59019;47.638;18.966;2023-08-20T04:34:03;12.60;;;9.93;;
71253;SDS011;59019;47.638;18.966;2023-08-20T04:36:28;12.87;;;10.30;;
71253;SDS011;59019;47.638;18.966;2023-08-20T04:38:54;13.77;;;10.73;;
71253;SDS011;59019;47.638;18.966;2023-08-20T04:41:19;15.60;;;10.27;;
71253;SDS011;59019;47.638;18.966;2023-08-20T04:43:45;12.43;;;10.20;;
71253;SDS011;59019;47.638;18.966;2023-08-20T04:46:10;13.23;;;10.90;;
71253;SDS011;59019;47.638;18.966;2023-08-20T04:48:36;13.23;;;10.07;;
71253;SDS011;59019;47.638;18.966;2023-08-20T04:51:01;12.13;;;9.30;;
71253;SDS011;59019;47.638;18.966;2023-08-20T04:53:27;12.63;;;9.33;;
71253;SDS011;59019;47.638;18.966;2023-08-20T04:55:52;12.00;;;9.65;;
71253;SDS011;59019;47.638;18.966;2023-08-20T04:58:18;11.63;;;9.43;;
71253;SDS011;59019;47.638;18.966;2023-08-20T05:00:43;11.23;;;9.57;;
71253;SDS011;59019;47.638;18.966;2023-08-20T05:03:09;11.30;;;8.97;;
71253;SDS011;59019;47.638;18.966;2023-08-20T05:05:34;11.07;;;9.03;;
71253;SDS011;59019;47.638;18.966;2023-08-20T05:08:00;11.27;;;8.83;;
71253;SDS011;59019;47.638;18.966;2023-08-20T05:10:25;10.68;;;8.43;;
71253;SDS011;59019;47.638;18.966;2023-08-20T05:12:51;10.60;;;8.20;;
71253;SDS011;59019;47.638;18.966;2023-08-20T05:15:16;10.10;;;7.80;;
71253;SDS011;59019;47.638;18.966;2023-08-20T05:17:42;10.65;;;8.00;;
71253;SDS011;59019;47.638;18.966;2023-08-20T05:20:08;10.83;;;8.17;;
71253;SDS011;59019;47.638;18.966;2023-08-20T05:22:34;10.20;;;8.27;;
71253;SDS011;59019;47.638;18.966;2023-08-20T05:25:00;9.73;;;7.93;;
71253;SDS011;59019;47.638;18.966;2023-08-20T05:27:25;10.93;;;7.20;;
71253;SDS011;59019;47.638;18.966;2023-08-20T05:29:51;10.43;;;7.85;;
71253;SDS011;59019;47.638;18.966;2023-08-20T05:32:16;9.35;;;7.50;;
71253;SDS011;59019;47.638;18.966;2023-08-20T05:34:42;9.47;;;7.47;;
71253;SDS011;59019;47.638;18.966;2023-08-20T05:37:08;9.20;;;7.30;;
71253;SDS011;59019;47.638;18.966;2023-08-20T05:39:36;9.48;;;7.00;;
71253;SDS011;59019;47.638;18.966;2023-08-20T05:42:06;8.17;;;7.10;;
71253;SDS011;59019;47.638;18.966;2023-08-20T05:44:32;8.30;;;7.20;;
71253;SDS011;59019;47.638;18.966;2023-08-20T05:46:57;8.73;;;7.10;;
71253;SDS011;59019;47.638;18.966;2023-08-20T05:49:23;9.07;;;6.90;;
71253;SDS011;59019;47.638;18.966;2023-08-20T05:51:49;7.87;;;6.60;;
71253;SDS011;59019;47.638;18.966;2023-08-20T05:54:14;8.07;;;6.73;;
71253;SDS011;59019;47.638;18.966;2023-08-20T05:56:40;8.57;;;6.50;;
71253;SDS011;59019;47.638;18.966;2023-08-20T05:59:05;8.80;;;6.38;;
71253;SDS011;59019;47.638;18.966;2023-08-20T06:01:31;10.00;;;7.20;;
71253;SDS011;59019;47.638;18.966;2023-08-20T06:03:56;8.43;;;6.67;;
71253;SDS011;59019;47.638;18.966;2023-08-20T06:06:22;8.63;;;6.60;;
71253;SDS011;59019;47.638;18.966;2023-08-20T06:08:48;9.00;;;6.53;;
71253;SDS011;59019;47.638;18.966;2023-08-20T06:11:13;8.10;;;7.10;;
71253;SDS011;59019;47.638;18.966;2023-08-20T06:13:39;8.63;;;6.70;;
71253;SDS011;59019;47.638;18.966;2023-08-20T06:16:04;8.27;;;6.53;;
71253;SDS011;59019;47.638;18.966;2023-08-20T06:18:30;8.77;;;6.70;;
71253;SDS011;59019;47.638;18.966;2023-08-20T06:20:55;8.73;;;6.50;;
71253;SDS011;59019;47.638;18.966;2023-08-20T06:23:21;8.00;;;6.27;;
71253;SDS011;59019;47.638;18.966;2023-08-20T06:25:46;8.30;;;6.27;;
71253;SDS011;59019;47.638;18.966;2023-08-20T06:28:12;8.18;;;6.50;;
71253;SDS011;59019;47.638;18.966;2023-08-20T06:30:38;8.63;;;6.30;;
71253;SDS011;59019;47.638;18.966;2023-08-20T06:33:03;8.60;;;6.73;;
71253;SDS011;59019;47.638;18.966;2023-08-20T06:35:29;8.13;;;6.33;;
71253;SDS011;59019;47.638;18.966;2023-08-20T06:37:54;8.75;;;6.43;;
71253;SDS011;59019;47.638;18.966;2023-08-20T06:40:22;7.80;;;6.30;;
71253;SDS011;59019;47.638;18.966;2023-08-20T06:42:48;6.80;;;6.10;;
71253;SDS011;59019;47.638;18.966;2023-08-20T06:45:13;7.90;;;6.20;;
71253;SDS011;59019;47.638;18.966;2023-08-20T06:47:39;7.57;;;6.10;;
71253;SDS011;59019;47.638;18.966;2023-08-20T06:50:04;8.27;;;6.20;;
71253;SDS011;59019;47.638;18.966;2023-08-20T06:52:31;7.47;;;6.40;;
71253;SDS011;59019;47.638;18.966;2023-08-20T06:54:56;8.27;;;6.30;;
71253;SDS011;59019;47.638;18.966;2023-08-20T06:57:22;7.63;;;6.00;;
71253;SDS011;59019;47.638;18.966;2023-08-20T06:59:48;8.00;;;5.90;;
71253;SDS011;59019;47.638;18.966;2023-08-20T07:02:13;7.47;;;6.10;;
71253;SDS011;59019;47.638;18.966;2023-08-20T07:04:39;7.65;;;5.97;;
71253;SDS011;59019;47.638;18.966;2023-08-20T07:07:04;7.43;;;6.27;;
71253;SDS011;59019;47.638;18.966;2023-08-20T07:09:30;7.37;;;6.30;;
71253;SDS011;59019;47.638;18.966;2023-08-20T07:11:56;7.43;;;6.30;;
71253;SDS011;59019;47.638;18.966;2023-08-20T07:14:21;7.40;;;6.10;;
71253;SDS011;59019;47.638;18.966;2023-08-20T07:16:47;7.63;;;6.00;;
71253;SDS011;59019;47.638;18.966;2023-08-20T07:19:12;6.88;;;5.90;;
71253;SDS011;59019;47.638;18.966;2023-08-20T07:21:38;7.30;;;6.13;;
71253;SDS011;59019;47.638;18.966;2023-08-20T07:24:03;7.00;;;6.20;;
71253;SDS011;59019;47.638;18.966;2023-08-20T07:26:29;7.82;;;6.35;;
71253;SDS011;59019;47.638;18.966;2023-08-20T07:28:55;7.93;;;6.30;;
71253;SDS011;59019;47.638;18.966;2023-08-20T07:31:24;7.97;;;6.50;;
71253;SDS011;59019;47.638;18.966;2023-08-20T07:33:53;10.67;;;6.70;;
71253;SDS011;59019;47.638;18.966;2023-08-20T07:36:21;7.50;;;6.30;;
71253;SDS011;59019;47.638;18.966;2023-08-20T07:38:47;7.82;;;6.50;;
71253;SDS011;59019;47.638;18.966;2023-08-20T07:41:13;9.35;;;6.32;;
71253;SDS011;59019;47.638;18.966;2023-08-20T07:43:39;7.37;;;6.30;;
71253;SDS011;59019;47.638;18.966;2023-08-20T07:46:06;7.30;;;6.47;;
71253;SDS011;59019;47.638;18.966;2023-08-20T07:48:32;8.50;;;6.50;;
71253;SDS011;59019;47.638;18.966;2023-08-20T07:50:59;7.70;;;6.50;;
71253;SDS011;59019;47.638;18.966;2023-08-20T07:53:25;8.68;;;6.60;;
71253;SDS011;59019;47.638;18.966;2023-08-20T07:55:50;7.57;;;6.77;;
71253;SDS011;59019;47.638;18.966;2023-08-20T07:58:16;9.77;;;6.77;;
71253;SDS011;59019;47.638;18.966;2023-08-20T08:00:42;8.25;;;7.03;;
71253;SDS011;59019;47.638;18.966;2023-08-20T08:03:08;8.15;;;7.22;;
71253;SDS011;59019;47.638;18.966;2023-08-20T08:05:34;8.55;;;7.03;;
71253;SDS011;59019;47.638;18.966;2023-08-20T08:08:00;10.50;;;7.30;;
71253;SDS011;59019;47.638;18.966;2023-08-20T08:10:26;8.57;;;7.50;;
71253;SDS011;59019;47.638;18.966;2023-08-20T08:12:51;8.67;;;7.77;;
71253;SDS011;59019;47.638;18.966;2023-08-20T08:15:17;8.50;;;7.20;;
71253;SDS011;59019;47.638;18.966;2023-08-20T08:17:43;8.93;;;7.60;;
71253;SDS011;59019;47.638;18.966;2023-08-20T08:20:09;8.82;;;7.63;;
71253;SDS011;59019;47.638;18.966;2023-08-20T08:22:34;9.40;;;7.40;;
71253;SDS011;59019;47.638;18.966;2023-08-20T08:25:00;8.33;;;7.10;;
71253;SDS011;59019;47.638;18.966;2023-08-20T08:27:25;8.77;;;7.20;;
71253;SDS011;59019;47.638;18.966;2023-08-20T08:29:51;8.73;;;7.10;;
71253;SDS011;59019;47.638;18.966;2023-08-20T08:32:16;7.80;;;7.00;;
71253;SDS011;59019;47.638;18.966;2023-08-20T08:34:42;8.03;;;7.20;;
71253;SDS011;59019;47.638;18.966;2023-08-20T08:37:08;9.40;;;7.40;;
71253;SDS011;59019;47.638;18.966;2023-08-20T08:39:33;9.40;;;7.28;;
71253;SDS011;59019;47.638;18.966;2023-08-20T08:42:02;8.37;;;6.97;;
71253;SDS011;59019;47.638;18.966;2023-08-20T08:44:30;10.20;;;7.40;;
71253;SDS011;59019;47.638;18.966;2023-08-20T08:46:57;8.07;;;7.10;;
71253;SDS011;59019;47.638;18.966;2023-08-20T08:49:25;9.60;;;7.22;;
71253;SDS011;59019;47.638;18.966;2023-08-20T08:51:51;8.30;;;7.00;;
71253;SDS011;59019;47.638;18.966;2023-08-20T08:54:21;7.75;;;6.80;;
71253;SDS011;59019;47.638;18.966;2023-08-20T08:56:47;9.77;;;7.20;;
71253;SDS011;59019;47.638;18.966;2023-08-20T08:59:15;8.07;;;7.20;;
71253;SDS011;59019;47.638;18.966;2023-08-20T09:01:40;7.93;;;7.13;;
71253;SDS011;59019;47.638;18.966;2023-08-20T09:04:07;8.70;;;7.07;;
71253;SDS011;59019;47.638;18.966;2023-08-20T09:06:50;8.43;;;7.32;;
71253;SDS011;59019;47.638;18.966;2023-08-20T09:09:17;8.10;;;7.10;;
71253;SDS011;59019;47.638;18.966;2023-08-20T09:11:46;8.52;;;7.35;;
71253;SDS011;59019;47.638;18.966;2023-08-20T09:14:22;9.45;;;6.78;;
71253;SDS011;59019;47.638;18.966;2023-08-20T09:17:01;7.60;;;6.72;;
71253;SDS011;59019;47.638;18.966;2023-08-20T09:19:28;8.02;;;6.85;;
71253;SDS011;59019;47.638;18.966;2023-08-20T09:21:55;9.30;;;6.78;;
71253;SDS011;59019;47.638;18.966;2023-08-20T09:24:45;8.33;;;7.10;;
71253;SDS011;59019;47.638;18.966;2023-08-20T09:27:12;8.00;;;7.20;;
71253;SDS011;59019;47.638;18.966;2023-08-20T09:29:45;9.43;;;7.20;;
71253;SDS011;59019;47.638;18.966;2023-08-20T09:32:15;7.90;;;7.10;;
71253;SDS011;59019;47.638;18.966;2023-08-20T09:34:41;8.40;;;7.03;;
71253;SDS011;59019;47.638;18.966;2023-08-20T09:37:08;8.30;;;6.97;;
71253;SDS011;59019;47.638;18.966;2023-08-20T09:39:35;8.60;;;7.00;;
71253;SDS011;59019;47.638;18.966;2023-08-20T09:42:01;8.20;;;6.80;;
71253;SDS011;59019;47.638;18.966;2023-08-20T09:44:28;8.10;;;6.97;;
71253;SDS011;59019;47.638;18.966;2023-08-20T09:46:58;8.77;;;7.30;;
71253;SDS011;59019;47.638;18.966;2023-08-20T09:49:24;11.13;;;7.30;;
71253;SDS011;59019;47.638;18.966;2023-08-20T09:51:54;8.88;;;6.38;;
71253;SDS011;59019;47.638;18.966;2023-08-20T09:54:25;8.02;;;6.88;;
71253;SDS011;59019;47.638;18.966;2023-08-20T09:56:59;7.45;;;6.65;;
71253;SDS011;59019;47.638;18.966;2023-08-20T09:59:31;7.47;;;6.50;;
71253;SDS011;59019;47.638;18.966;2023-08-20T10:01:57;8.40;;;7.00;;
71253;SDS011;59019;47.638;18.966;2023-08-20T10:04:24;10.20;;;6.47;;
71253;SDS011;59019;47.638;18.966;2023-08-20T10:06:50;7.43;;;6.30;;
71253;SDS011;59019;47.638;18.966;2023-08-20T10:09:19;7.18;;;5.90;;
71253;SDS011;59019;47.638;18.966;2023-08-20T10:11:46;7.57;;;6.28;;
71253;SDS011;59019;47.638;18.966;2023-08-20T10:14:12;8.45;;;6.20;;
71253;SDS011;59019;47.638;18.966;2023-08-20T10:16:38;7.65;;;6.05;;
71253;SDS011;59019;47.638;18.966;2023-08-20T10:19:07;8.43;;;5.60;;
71253;SDS011;59019;47.638;18.966;2023-08-20T10:21:33;7.57;;;5.70;;
71253;SDS011;59019;47.638;18.966;2023-08-20T10:24:05;7.25;;;5.90;;
71253;SDS011;59019;47.638;18.966;2023-08-20T10:26:33;7.72;;;5.70;;
71253;SDS011;59019;47.638;18.966;2023-08-20T10:29:48;7.00;;;5.63;;
71253;SDS011;59019;47.638;18.966;2023-08-20T10:32:06;7.22;;;5.70;;
71253;SDS011;59019;47.638;18.966;2023-08-20T10:34:36;8.07;;;5.78;;
71253;SDS011;59019;47.638;18.966;2023-08-20T10:37:08;7.60;;;6.28;;
71253;SDS011;59019;47.638;18.966;2023-08-20T10:39:35;8.18;;;5.80;;
71253;SDS011;59019;47.638;18.966;2023-08-20T10:45:01;6.82;;;5.85;;
71253;SDS011;59019;47.638;18.966;2023-08-20T10:48:02;8.18;;;6.35;;
71253;SDS011;59019;47.638;18.966;2023-08-20T10:50:22;7.22;;;6.15;;
71253;SDS011;59019;47.638;18.966;2023-08-20T10:52:48;7.97;;;6.50;;
71253;SDS011;59019;47.638;18.966;2023-08-20T10:55:17;8.63;;;7.00;;
71253;SDS011;59019;47.638;18.966;2023-08-20T10:57:54;8.02;;;6.90;;
71253;SDS011;59019;47.638;18.966;2023-08-20T11:00:21;8.50;;;7.10;;
71253;SDS011;59019;47.638;18.966;2023-08-20T11:02:47;7.93;;;6.80;;
71253;SDS011;59019;47.638;18.966;2023-08-20T11:05:18;8.07;;;6.60;;
71253;SDS011;59019;47.638;18.966;2023-08-20T11:07:45;7.85;;;6.90;;
71253;SDS011;59019;47.638;18.966;2023-08-20T11:10:17;8.10;;;7.30;;
71253;SDS011;59019;47.638;18.966;2023-08-20T11:12:43;8.67;;;7.17;;
71253;SDS011;59019;47.638;18.966;2023-08-20T11:15:11;8.00;;;7.10;;
71253;SDS011;59019;47.638;18.966;2023-08-20T11:17:40;8.53;;;7.13;;
71253;SDS011;59019;47.638;18.966;2023-08-20T11:20:15;8.07;;;7.22;;
71253;SDS011;59019;47.638;18.966;2023-08-20T11:22:40;7.80;;;7.00;;
71253;SDS011;59019;47.638;18.966;2023-08-20T11:25:10;7.80;;;7.00;;
71253;SDS011;59019;47.638;18.966;2023-08-20T11:27:47;7.97;;;6.28;;
71253;SDS011;59019;47.638;18.966;2023-08-20T11:30:13;9.45;;;6.55;;
71253;SDS011;59019;47.638;18.966;2023-08-20T11:32:38;8.43;;;6.40;;
71253;SDS011;59019;47.638;18.966;2023-08-20T11:35:05;7.25;;;6.35;;
71253;SDS011;59019;47.638;18.966;2023-08-20T11:37:32;8.05;;;6.13;;
71253;SDS011;59019;47.638;18.966;2023-08-20T11:39:57;6.93;;;6.10;;
71253;SDS011;59019;47.638;18.966;2023-08-20T11:42:23;7.95;;;6.38;;
71253;SDS011;59019;47.638;18.966;2023-08-20T11:44:50;7.75;;;6.50;;
71253;SDS011;59019;47.638;18.966;2023-08-20T11:47:15;8.03;;;6.40;;
71253;SDS011;59019;47.638;18.966;2023-08-20T11:49:42;9.67;;;6.77;;
71253;SDS011;59019;47.638;18.966;2023-08-20T11:52:07;8.50;;;6.50;;
71253;SDS011;59019;47.638;18.966;2023-08-20T11:54:34;8.20;;;6.53;;
71253;SDS011;59019;47.638;18.966;2023-08-20T11:57:04;8.10;;;6.40;;
71253;SDS011;59019;47.638;18.966;2023-08-20T11:59:32;7.20;;;6.50;;
71253;SDS011;59019;47.638;18.966;2023-08-20T12:01:59;6.93;;;6.23;;
71253;SDS011;59019;47.638;18.966;2023-08-20T12:04:26;8.38;;;6.43;;
71253;SDS011;59019;47.638;18.966;2023-08-20T12:07:09;7.65;;;6.50;;
71253;SDS011;59019;47.638;18.966;2023-08-20T12:09:38;7.00;;;6.23;;
71253;SDS011;59019;47.638;18.966;2023-08-20T12:12:05;7.63;;;6.47;;
71253;SDS011;59019;47.638;18.966;2023-08-20T12:14:31;7.15;;;6.10;;
71253;SDS011;59019;47.638;18.966;2023-08-20T12:16:57;7.63;;;6.37;;
71253;SDS011;59019;47.638;18.966;2023-08-20T12:19:23;7.72;;;6.32;;
71253;SDS011;59019;47.638;18.966;2023-08-20T12:21:49;7.10;;;6.30;;
71253;SDS011;59019;47.638;18.966;2023-08-20T12:24:15;8.82;;;5.93;;
71253;SDS011;59019;47.638;18.966;2023-08-20T12:26:41;7.32;;;6.05;;
71253;SDS011;59019;47.638;18.966;2023-08-20T12:29:08;7.40;;;6.20;;
71253;SDS011;59019;47.638;18.966;2023-08-20T12:31:33;7.60;;;6.20;;
71253;SDS011;59019;47.638;18.966;2023-08-20T12:34:00;8.07;;;6.05;;
71253;SDS011;59019;47.638;18.966;2023-08-20T12:36:26;7.05;;;6.22;;
71253;SDS011;59019;47.638;18.966;2023-08-20T12:38:52;7.95;;;6.00;;
71253;SDS011;59019;47.638;18.966;2023-08-20T12:41:18;7.47;;;6.00;;
71253;SDS011;59019;47.638;18.966;2023-08-20T12:43:44;9.45;;;6.03;;
71253;SDS011;59019;47.638;18.966;2023-08-20T12:46:10;8.30;;;6.20;;
71253;SDS011;59019;47.638;18.966;2023-08-20T12:48:37;7.70;;;6.07;;
71253;SDS011;59019;47.638;18.966;2023-08-20T12:51:02;6.73;;;5.97;;
71253;SDS011;59019;47.638;18.966;2023-08-20T12:53:28;8.43;;;6.23;;
71253;SDS011;59019;47.638;18.966;2023-08-20T12:55:53;8.83;;;6.43;;
71253;SDS011;59019;47.638;18.966;2023-08-20T12:58:19;8.35;;;6.10;;
71253;SDS011;59019;47.638;18.966;2023-08-20T13:00:45;7.57;;;5.82;;
71253;SDS011;59019;47.638;18.966;2023-08-20T13:03:11;7.13;;;5.97;;
71253;SDS011;59019;47.638;18.966;2023-08-20T13:05:37;7.38;;;6.00;;
71253;SDS011;59019;47.638;18.966;2023-08-20T13:08:03;7.13;;;6.10;;
71253;SDS011;59019;47.638;18.966;2023-08-20T13:10:29;8.38;;;5.72;;
71253;SDS011;59019;47.638;18.966;2023-08-20T13:12:55;9.77;;;6.40;;
71253;SDS011;59019;47.638;18.966;2023-08-20T13:15:27;8.77;;;6.50;;
71253;SDS011;59019;47.638;18.966;2023-08-20T13:17:53;8.40;;;6.55;;
71253;SDS011;59019;47.638;18.966;2023-08-20T13:20:20;8.30;;;6.47;;
71253;SDS011;59019;47.638;18.966;2023-08-20T13:22:50;7.88;;;6.40;;
71253;SDS011;59019;47.638;18.966;2023-08-20T13:25:17;8.75;;;6.60;;
71253;SDS011;59019;47.638;18.966;2023-08-20T13:27:48;9.43;;;6.50;;
71253;SDS011;59019;47.638;18.966;2023-08-20T13:30:14;7.18;;;6.40;;
71253;SDS011;59019;47.638;18.966;2023-08-20T13:32:40;9.70;;;6.50;;
71253;SDS011;59019;47.638;18.966;2023-08-20T13:35:05;7.63;;;6.03;;
71253;SDS011;59019;47.638;18.966;2023-08-20T13:37:32;8.75;;;6.43;;
71253;SDS011;59019;47.638;18.966;2023-08-20T13:39:58;9.00;;;6.50;;
71253;SDS011;59019;47.638;18.966;2023-08-20T13:42:24;9.30;;;6.37;;
71253;SDS011;59019;47.638;18.966;2023-08-20T13:44:52;7.82;;;6.15;;
71253;SDS011;59019;47.638;18.966;2023-08-20T13:47:18;8.87;;;6.23;;
71253;SDS011;59019;47.638;18.966;2023-08-20T13:49:44;8.20;;;6.38;;
71253;SDS011;59019;47.638;18.966;2023-08-20T13:52:10;7.27;;;6.10;;
71253;SDS011;59019;47.638;18.966;2023-08-20T13:54:35;8.00;;;6.20;;
71253;SDS011;59019;47.638;18.966;2023-08-20T13:57:02;6.85;;;6.00;;
71253;SDS011;59019;47.638;18.966;2023-08-20T13:59:28;9.20;;;6.20;;
71253;SDS011;59019;47.638;18.966;2023-08-20T14:01:54;8.40;;;6.70;;
71253;SDS011;59019;47.638;18.966;2023-08-20T14:04:20;7.27;;;6.23;;
71253;SDS011;59019;47.638;18.966;2023-08-20T14:06:45;8.00;;;6.10;;
71253;SDS011;59019;47.638;18.966;2023-08-20T14:09:11;8.10;;;6.45;;
71253;SDS011;59019;47.638;18.966;2023-08-20T14:11:37;8.00;;;6.50;;
71253;SDS011;59019;47.638;18.966;2023-08-20T14:14:02;7.47;;;6.30;;
71253;SDS011;59019;47.638;18.966;2023-08-20T14:16:28;8.27;;;7.13;;
71253;SDS011;59019;47.638;18.966;2023-08-20T14:18:53;8.63;;;6.85;;
71253;SDS011;59019;47.638;18.966;2023-08-20T14:21:19;7.63;;;6.83;;
71253;SDS011;59019;47.638;18.966;2023-08-20T14:23:44;8.40;;;7.17;;
71253;SDS011;59019;47.638;18.966;2023-08-20T14:26:10;8.63;;;6.90;;
71253;SDS011;59019;47.638;18.966;2023-08-20T14:28:35;8.60;;;7.20;;
71253;SDS011;59019;47.638;18.966;2023-08-20T14:31:01;7.57;;;6.80;;